Wolf Creek, OR (97497)

8:41 PM PST en Marzo 02, 2015 (GMT -0800)
wolf creek | Change Station
CLOSE
Current Station
Estación meteorológica personal
Location: Wolf Creek, OR
Altura: 1503 ft
Estaciones meteorológicas cercanas

Alt 1503 ft 42.71 °N, 123.37 °W | Updated 21 seconds ago

Nublado
Nublado
39.4 ° F
Sensación térmica 39 ° F
N
0.0
Viento Variable Viento desde NNO
Gusts 0.0 mph

Hoy
Alta -- | Baja -- ° F
--% Posibilidad de precipitaciones
Ayer
Alta -- | Baja -- ° F
Precip. -- pul
6:47 AM 6:04 PM
Gibosa creciente, 94% visible
Presión 30.01 pul
Visibilidad 10.0 Millas
Nubes Muy nublado 5000 ft
Vientos helados 39 ° F
Punto de rocío 34 ° F
Humedad 81%
Precipitaciones 0.00 pul
Espesor de la nieve No disponible.
UV 0 de una escala de 12
Polen 4.80 de una escala de 12
Calidad del aire No disponible.
Flu Activity No disponible.
METAR KMFR 030353Z 30004KT 10SM BKN050 08/00 A2999 RMK AO2 SLP160 T00780000

More Conditions Fewer Conditions

Presión 30.01 pul
Visibilidad 10.0 Millas
Nubes Muy nublado 5000 ft
Vientos helados 39 ° F
Punto de rocío 34 ° F
Humedad 81%
Precipitaciones 0.00 pul
Espesor de la nieve No disponible.
UV 0 de una escala de 12
Polen 4.80 de una escala de 12
Calidad del aire No disponible.
Flu Activity No disponible.
METAR KMFR 030353Z 30004KT 10SM BKN050 08/00 A2999 RMK AO2 SLP160 T00780000

More Conditions Fewer Conditions

10-Day Weather Forecast

Almanac

Astronomía

Mar. 02, 2015 Salida Puesta
Hora real
Crepúsculo civil
Crepúsculo náutico
Crepúsculo astronómico
Luna
Horas de luz
Horas de luz
Tomorrow will be .
, % of the Moon is Illuminated

Extremos de hoy

Máximos del estado Bajos del estado

Community

WunderPhotos

Upload Photos

1,802,064 ¡fotos cargadas!

WunderBlogs® & News

Nearby

Calidad del aire

  Calidad del aire Índice AQ Contaminante
Not available.

Grosos de nieve

Estación Profundido Altura

Actividad de terremotos

Ciudad Distance Mag. Tiempo y dato
Magnitud mínima muestra es 2,5.

Temperaturas de aguas costeras

Lugar Temperatura

Estaciones meteorológicas cercanas